createdAt,value
2022-10-05T00:02:57.186Z,101483.28
2022-10-05T00:06:00.389Z,101484.19
2022-10-05T00:09:13.132Z,101485.88
2022-10-05T00:12:21.896Z,101486.75
2022-10-05T00:15:24.309Z,101480.75
2022-10-05T00:18:27.220Z,101479.16
2022-10-05T00:21:29.776Z,101479.25
2022-10-05T00:24:32.571Z,101482.66
2022-10-05T00:27:37.959Z,101480.87
2022-10-05T00:30:40.919Z,101475.84
2022-10-05T00:33:43.668Z,101471.69
2022-10-05T00:36:46.700Z,101470.06
2022-10-05T00:39:49.651Z,101468.41
2022-10-05T00:43:22.786Z,101465.03
2022-10-05T00:46:29.037Z,101467.63
2022-10-05T00:49:49.419Z,101471.09
2022-10-05T00:53:06.162Z,101460.91
2022-10-05T00:56:37.845Z,101457.53
2022-10-05T00:59:46.340Z,101465.28
2022-10-05T01:03:01.418Z,101470.47
2022-10-05T01:06:24.591Z,101464.44
2022-10-05T01:09:43.313Z,101469.62
2022-10-05T01:12:52.178Z,101485.16
2022-10-05T01:15:58.046Z,101489.47
2022-10-05T01:19:34.248Z,101486.03
2022-10-05T01:22:52.156Z,101489.47
2022-10-05T01:26:09.644Z,101497.22
2022-10-05T01:29:18.711Z,101492.06
2022-10-05T01:32:30.020Z,101494.72
2022-10-05T01:35:38.482Z,101494.72
2022-10-05T01:38:58.202Z,101499.88
2022-10-05T01:42:13.497Z,101505.09
2022-10-05T01:45:40.772Z,101504.25
2022-10-05T01:49:23.970Z,101498.25
2022-10-05T01:52:43.964Z,101498.31
2022-10-05T01:56:08.761Z,101488.88
2022-10-05T01:59:43.715Z,101484.59
2022-10-05T02:02:46.815Z,101499.22
2022-10-05T02:06:06.387Z,101511.25
2022-10-05T02:09:19.714Z,101509.53
2022-10-05T02:12:27.582Z,101516.44
2022-10-05T02:15:40.548Z,101514.78
2022-10-05T02:18:58.900Z,101516.56
2022-10-05T02:22:24.202Z,101526.03
2022-10-05T02:25:33.233Z,101525.19
2022-10-05T02:28:42.052Z,101522.66
2022-10-05T02:32:06.772Z,101525.28
2022-10-05T02:35:16.899Z,101522.72
2022-10-05T02:38:28.800Z,101527.91
2022-10-05T02:41:43.948Z,101528.78
2022-10-05T02:45:21.839Z,101530.50
2022-10-05T02:48:46.047Z,101539.97
2022-10-05T02:52:21.880Z,101535.59
2022-10-05T02:55:49.632Z,101537.38
2022-10-05T02:59:31.328Z,101534.78
2022-10-05T03:02:52.665Z,101533.94
2022-10-05T03:06:01.526Z,101533.94
2022-10-05T03:09:09.583Z,101533.94
2022-10-05T03:12:21.161Z,101528.78
2022-10-05T03:16:06.833Z,101525.41
2022-10-05T03:19:19.208Z,101522.00
2022-10-05T03:22:39.507Z,101508.25
2022-10-05T03:26:13.679Z,101508.31
2022-10-05T03:29:44.431Z,101506.59
2022-10-05T03:33:05.244Z,101510.03
2022-10-05T03:36:38.401Z,101509.22
2022-10-05T03:39:57.538Z,101510.09
2022-10-05T03:43:36.222Z,101523.84
2022-10-05T03:47:31.175Z,101529.91
2022-10-05T03:50:40.793Z,101524.81
2022-10-05T03:53:53.134Z,101542.91
2022-10-05T03:57:03.066Z,101540.31
2022-10-05T04:00:28.160Z,101546.25
2022-10-05T04:03:37.994Z,101545.37
2022-10-05T04:06:52.381Z,101548.87
2022-10-05T04:09:57.602Z,101540.31
2022-10-05T04:13:11.187Z,101546.34
2022-10-05T04:16:28.232Z,101535.97
2022-10-05T04:19:44.302Z,101541.09
2022-10-05T04:23:09.048Z,101547.09
2022-10-05T04:26:19.493Z,101543.72
2022-10-05T04:29:38.133Z,101541.94
2022-10-05T04:32:47.769Z,101539.38
2022-10-05T04:36:24.319Z,101541.84
2022-10-05T04:39:34.383Z,101549.72
2022-10-05T04:42:44.493Z,101550.62
2022-10-05T04:45:58.677Z,101552.34
2022-10-05T04:49:12.697Z,101553.22
2022-10-05T04:52:32.864Z,101546.34
2022-10-05T04:55:57.913Z,101548.97
2022-10-05T04:59:22.980Z,101540.38
2022-10-05T05:02:57.147Z,101544.66
2022-10-05T05:06:18.249Z,101539.47
2022-10-05T05:09:46.351Z,101537.69
2022-10-05T05:13:01.206Z,101544.53
2022-10-05T05:16:25.187Z,101538.44
2022-10-05T05:19:58.305Z,101537.53
2022-10-05T05:23:11.276Z,101541.72
2022-10-05T05:26:45.518Z,101551.94
2022-10-05T05:29:57.338Z,101541.56
2022-10-05T05:33:18.121Z,101546.44
2022-10-05T05:36:43.622Z,101539.59
2022-10-05T05:40:10.235Z,101554.22
2022-10-05T05:43:26.753Z,101560.13
2022-10-05T05:47:02.251Z,101567.69
2022-10-05T05:50:32.440Z,101568.38
2022-10-05T05:53:35.399Z,101578.50
2022-10-05T05:56:47.334Z,101587.75
2022-10-05T06:00:06.135Z,101596.09
2022-10-05T06:03:50.971Z,101594.16
2022-10-05T06:06:58.018Z,101605.09
2022-10-05T06:10:17.188Z,101622.81
2022-10-05T06:13:29.018Z,101626.03
2022-10-05T06:16:41.798Z,101641.38
2022-10-05T06:19:47.342Z,101644.81
2022-10-05T06:22:51.990Z,101645.72
2022-10-05T06:26:11.624Z,101668.22
2022-10-05T06:29:22.730Z,101660.50
2022-10-05T06:32:33.372Z,101654.37
2022-10-05T06:35:55.818Z,101660.13
2022-10-05T06:39:17.986Z,101659.06
2022-10-05T06:42:44.694Z,101665.22
2022-10-05T06:46:11.890Z,101656.34
2022-10-05T06:49:25.249Z,101650.03
2022-10-05T06:52:40.461Z,101665.34
2022-10-05T06:55:48.953Z,101666.03
2022-10-05T06:58:58.483Z,101667.53
2022-10-05T07:02:14.571Z,101679.28
2022-10-05T07:05:35.813Z,101681.84
2022-10-05T07:08:57.144Z,101692.09
2022-10-05T07:12:43.812Z,101688.22
2022-10-05T07:16:34.007Z,101686.81
2022-10-05T07:20:01.359Z,101668.75
2022-10-05T07:23:08.878Z,101664.47
2022-10-05T07:26:28.861Z,101675.13
2022-10-05T07:29:34.594Z,101689.06
2022-10-05T07:33:13.681Z,101689.50
2022-10-05T07:36:52.241Z,101687.22
2022-10-05T07:40:08.733Z,101688.56
2022-10-05T07:43:45.274Z,101688.41
2022-10-05T07:46:58.617Z,101679.91
2022-10-05T07:50:23.555Z,101674.78
2022-10-05T07:53:58.869Z,101677.06
2022-10-05T07:57:10.806Z,101667.97
2022-10-05T08:00:21.112Z,101686.63
2022-10-05T08:03:47.359Z,101694.53
2022-10-05T08:06:54.144Z,101690.13
2022-10-05T08:10:23.045Z,101690.59
2022-10-05T08:13:31.539Z,101687.09
2022-10-05T08:16:38.457Z,101668.94
2022-10-05T08:19:48.944Z,101662.59
2022-10-05T08:23:01.536Z,101655.22
2022-10-05T08:26:34.905Z,101654.34
2022-10-05T08:30:01.412Z,101639.72
2022-10-05T08:33:14.809Z,101644.34
2022-10-05T08:36:24.128Z,101650.03
2022-10-05T08:39:36.194Z,101643.47
2022-10-05T08:43:07.005Z,101638.31
2022-10-05T08:46:32.001Z,101643.34
2022-10-05T08:49:47.043Z,101642.75
2022-10-05T08:53:07.685Z,101645.91
2022-10-05T08:57:06.274Z,101639.12
2022-10-05T09:00:13.166Z,101635.53
2022-10-05T09:03:39.695Z,101641.50
2022-10-05T09:06:53.998Z,101647.94
2022-10-05T09:10:01.842Z,101645.66
2022-10-05T09:13:22.950Z,101661.94
2022-10-05T09:16:44.391Z,101668.25
2022-10-05T09:19:58.501Z,101665.72
2022-10-05T09:23:25.088Z,101663.28
2022-10-05T09:27:04.524Z,101666.09
2022-10-05T09:30:55.639Z,101659.94
2022-10-05T09:34:13.177Z,101662.53
2022-10-05T09:37:26.067Z,101655.75
2022-10-05T09:40:56.897Z,101667.06
2022-10-05T09:44:17.181Z,101661.56
2022-10-05T09:47:45.191Z,101649.81
2022-10-05T09:50:58.548Z,101643.53
2022-10-05T09:54:32.943Z,101652.81
2022-10-05T09:58:00.408Z,101654.81
2022-10-05T10:01:36.391Z,101648.28
2022-10-05T10:05:20.149Z,101646.47
2022-10-05T10:08:44.181Z,101648.13
2022-10-05T10:12:08.668Z,101644.19
2022-10-05T10:15:36.790Z,101639.22
2022-10-05T10:19:18.072Z,101637.97
2022-10-05T10:22:57.661Z,101651.06
2022-10-05T10:26:16.986Z,101641.75
2022-10-05T10:29:45.886Z,101645.06
2022-10-05T10:33:13.870Z,101642.12
2022-10-05T10:36:27.741Z,101641.78
2022-10-05T10:39:58.083Z,101642.78
2022-10-05T10:43:32.753Z,101639.84
2022-10-05T10:46:44.952Z,101639.69
2022-10-05T10:50:15.801Z,101641.44
2022-10-05T10:53:39.697Z,101641.41
2022-10-05T10:56:47.945Z,101648.13
2022-10-05T11:00:19.467Z,101644.13
2022-10-05T11:03:50.264Z,101639.09
2022-10-05T11:07:11.278Z,101638.59
2022-10-05T11:10:22.798Z,101647.37
2022-10-05T11:14:11.748Z,101641.28
2022-10-05T11:17:29.363Z,101640.13
2022-10-05T11:20:47.446Z,101636.41
2022-10-05T11:24:18.241Z,101638.03
2022-10-05T11:27:41.875Z,101631.34
2022-10-05T11:31:03.081Z,101628.09
2022-10-05T11:34:33.229Z,101621.97
2022-10-05T11:38:07.878Z,101618.12
2022-10-05T11:41:19.511Z,101614.59
2022-10-05T11:44:59.446Z,101617.00
2022-10-05T11:48:11.331Z,101615.03
2022-10-05T11:51:29.159Z,101608.19
2022-10-05T11:55:06.049Z,101601.97
2022-10-05T11:58:26.149Z,101598.50
2022-10-05T12:01:56.622Z,101596.09
2022-10-05T12:05:22.018Z,101585.87
2022-10-05T12:08:36.774Z,101583.13
2022-10-05T12:12:00.674Z,101582.28
2022-10-05T12:15:26.855Z,101586.56
2022-10-05T12:18:32.724Z,101587.69
2022-10-05T12:21:47.878Z,101589.94
2022-10-05T12:25:02.956Z,101594.16
2022-10-05T12:28:12.340Z,101583.34
2022-10-05T12:31:35.565Z,101579.94
2022-10-05T12:34:48.785Z,101574.31
2022-10-05T12:38:17.001Z,101570.94
2022-10-05T12:41:28.590Z,101568.78
2022-10-05T12:44:43.257Z,101559.47
2022-10-05T12:47:54.678Z,101550.34
2022-10-05T12:51:08.181Z,101553.44
2022-10-05T12:54:34.428Z,101552.88
2022-10-05T12:57:37.190Z,101548.63
2022-10-05T13:00:53.795Z,101549.88
2022-10-05T13:04:02.985Z,101546.28
2022-10-05T13:07:36.759Z,101545.63
2022-10-05T13:10:49.404Z,101551.53
2022-10-05T13:14:29.652Z,101553.31
2022-10-05T13:17:47.729Z,101541.75
2022-10-05T13:21:04.511Z,101538.19
2022-10-05T13:24:17.360Z,101538.56
2022-10-05T13:27:29.642Z,101537.81
2022-10-05T13:30:33.637Z,101536.22
2022-10-05T13:34:20.081Z,101536.31
2022-10-05T13:37:32.547Z,101533.16
2022-10-05T13:40:45.994Z,101529.47
2022-10-05T13:44:18.151Z,101523.28
2022-10-05T13:48:08.800Z,101529.09
2022-10-05T13:51:17.802Z,101525.72
2022-10-05T13:54:27.113Z,101525.16
2022-10-05T13:57:47.100Z,101529.00
2022-10-05T14:00:56.390Z,101533.09
2022-10-05T14:04:24.667Z,101540.81
2022-10-05T14:07:38.691Z,101534.63
2022-10-05T14:10:43.675Z,101526.00
2022-10-05T14:13:48.163Z,101535.00
2022-10-05T14:16:56.474Z,101532.59
2022-10-05T14:20:02.913Z,101530.03
2022-10-05T14:23:24.447Z,101529.56
2022-10-05T14:26:27.316Z,101533.78
2022-10-05T14:29:38.249Z,101534.84
2022-10-05T14:32:51.454Z,101531.31
2022-10-05T14:35:56.360Z,101530.03
2022-10-05T14:39:02.049Z,101530.28
2022-10-05T14:42:19.204Z,101529.84
2022-10-05T14:45:25.139Z,101529.84
2022-10-05T14:48:40.747Z,101536.47
2022-10-05T14:51:43.496Z,101538.63
2022-10-05T14:55:24.683Z,101526.66
2022-10-05T14:58:43.247Z,101522.25
2022-10-05T15:01:55.442Z,101519.62
2022-10-05T15:05:07.079Z,101507.03
2022-10-05T15:08:36.032Z,101497.56
2022-10-05T15:11:46.554Z,101496.56
2022-10-05T15:15:01.426Z,101507.16
2022-10-05T15:18:19.653Z,101511.16
2022-10-05T15:21:39.444Z,101508.06
2022-10-05T15:24:51.720Z,101512.66
2022-10-05T15:28:22.553Z,101513.66
2022-10-05T15:31:40.574Z,101491.09
2022-10-05T15:34:49.963Z,101483.31
2022-10-05T15:37:54.894Z,101489.88
2022-10-05T15:41:10.054Z,101499.31
2022-10-05T15:44:30.561Z,101485.25
2022-10-05T15:47:51.781Z,101490.28
2022-10-05T15:51:22.220Z,101499.62
2022-10-05T15:54:49.776Z,101493.31
2022-10-05T15:57:52.227Z,101494.78
2022-10-05T16:01:09.109Z,101502.38
2022-10-05T16:04:22.844Z,101503.63
2022-10-05T16:07:52.311Z,101497.97
2022-10-05T16:10:56.536Z,101504.22
2022-10-05T16:14:12.656Z,101504.84
2022-10-05T16:17:18.322Z,101504.47
2022-10-05T16:20:41.122Z,101502.25
2022-10-05T16:24:15.603Z,101511.25
2022-10-05T16:27:21.187Z,101507.50
2022-10-05T16:30:26.372Z,101513.62
2022-10-05T16:33:58.403Z,101511.72
2022-10-05T16:37:13.248Z,101511.47
2022-10-05T16:40:33.944Z,101509.72
2022-10-05T16:43:49.404Z,101511.97
2022-10-05T16:46:59.440Z,101515.19
2022-10-05T16:50:17.538Z,101525.16
2022-10-05T16:53:30.544Z,101527.75
2022-10-05T16:56:42.545Z,101535.72
2022-10-05T17:00:03.962Z,101543.72
2022-10-05T17:03:21.193Z,101549.47
2022-10-05T17:06:37.064Z,101546.44
2022-10-05T17:10:07.496Z,101545.19
2022-10-05T17:13:37.365Z,101550.69
2022-10-05T17:16:47.296Z,101557.25
2022-10-05T17:20:19.283Z,101551.41
2022-10-05T17:23:50.359Z,101560.34
2022-10-05T17:27:15.972Z,101549.34
2022-10-05T17:30:29.274Z,101557.28
2022-10-05T17:33:33.454Z,101549.75
2022-10-05T17:36:53.133Z,101555.94
2022-10-05T17:39:57.101Z,101565.72
2022-10-05T17:43:23.973Z,101557.22
2022-10-05T17:46:47.533Z,101564.53
2022-10-05T17:50:16.876Z,101562.97
2022-10-05T17:53:41.270Z,101558.78
2022-10-05T17:56:46.966Z,101572.22
2022-10-05T17:59:52.336Z,101564.88
2022-10-05T18:02:58.254Z,101566.72
2022-10-05T18:06:25.651Z,101567.78
2022-10-05T18:09:33.092Z,101562.56
2022-10-05T18:12:45.388Z,101560.88
2022-10-05T18:15:49.266Z,101556.63
2022-10-05T18:18:57.308Z,101568.19
2022-10-05T18:22:07.781Z,101563.91
2022-10-05T18:25:20.144Z,101573.63
2022-10-05T18:28:25.260Z,101563.41
2022-10-05T18:31:42.196Z,101573.22
2022-10-05T18:35:08.419Z,101575.19
2022-10-05T18:38:38.525Z,101571.00
2022-10-05T18:41:54.493Z,101572.06
2022-10-05T18:45:16.988Z,101563.66
2022-10-05T18:48:50.178Z,101564.63
2022-10-05T18:52:08.913Z,101563.66
2022-10-05T18:55:20.791Z,101568.38
2022-10-05T18:58:33.357Z,101570.03
2022-10-05T19:01:59.672Z,101566.63
2022-10-05T19:05:29.343Z,101571.12
2022-10-05T19:08:41.220Z,101563.53
2022-10-05T19:11:55.707Z,101560.00
2022-10-05T19:15:23.318Z,101562.72
2022-10-05T19:18:44.443Z,101563.91
2022-10-05T19:22:07.233Z,101565.03
2022-10-05T19:25:24.974Z,101579.97
2022-10-05T19:28:41.261Z,101576.63
2022-10-05T19:31:53.141Z,101579.37
2022-10-05T19:35:05.768Z,101582.25
2022-10-05T19:38:27.409Z,101581.63
2022-10-05T19:41:36.161Z,101584.41
2022-10-05T19:45:10.306Z,101599.41
2022-10-05T19:48:22.017Z,101594.12
2022-10-05T19:51:29.471Z,101595.19
2022-10-05T19:54:32.444Z,101592.87
2022-10-05T19:57:35.249Z,101599.94
2022-10-05T20:00:37.961Z,101601.75
2022-10-05T20:03:41.049Z,101609.69
2022-10-05T20:06:43.636Z,101610.75
2022-10-05T20:09:58.520Z,101609.06
2022-10-05T20:13:03.695Z,101614.34
2022-10-05T20:16:35.650Z,101617.78
2022-10-05T20:19:57.551Z,101616.25
2022-10-05T20:23:22.518Z,101621.62
2022-10-05T20:27:12.612Z,101623.53
2022-10-05T20:30:28.653Z,101620.94
2022-10-05T20:33:31.171Z,101622.78
2022-10-05T20:36:33.930Z,101625.50
2022-10-05T20:39:36.445Z,101622.88
2022-10-05T20:42:39.290Z,101626.44
2022-10-05T20:45:43.354Z,101622.12
2022-10-05T20:48:46.041Z,101633.41
2022-10-05T20:51:48.519Z,101629.22
2022-10-05T20:54:54.136Z,101628.38
2022-10-05T20:57:57.685Z,101623.31
2022-10-05T21:01:15.382Z,101632.00
2022-10-05T21:04:20.762Z,101628.72
2022-10-05T21:07:25.686Z,101627.06
2022-10-05T21:10:28.147Z,101628.97
2022-10-05T21:13:30.837Z,101623.81
2022-10-05T21:16:38.082Z,101622.22
2022-10-05T21:19:40.952Z,101626.69
2022-10-05T21:22:43.404Z,101622.50
2022-10-05T21:25:46.110Z,101619.19
2022-10-05T21:28:48.624Z,101624.44
2022-10-05T21:31:51.536Z,101631.50
2022-10-05T21:34:54.041Z,101629.09
2022-10-05T21:37:56.751Z,101622.28
2022-10-05T21:41:01.676Z,101627.56
2022-10-05T21:44:06.250Z,101622.22
2022-10-05T21:47:08.833Z,101628.34
2022-10-05T21:50:11.704Z,101625.91
2022-10-05T21:53:18.457Z,101623.41
2022-10-05T21:56:24.256Z,101618.31
2022-10-05T21:59:31.271Z,101622.59
2022-10-05T22:02:34.361Z,101622.59
2022-10-05T22:05:37.187Z,101618.34
2022-10-05T22:08:40.176Z,101614.19
2022-10-05T22:11:46.641Z,101615.09
2022-10-05T22:14:49.671Z,101608.22
2022-10-05T22:17:52.623Z,101605.78
2022-10-05T22:20:55.128Z,101605.78
2022-10-05T22:23:58.357Z,101611.12
2022-10-05T22:27:00.880Z,101609.41
2022-10-05T22:30:05.724Z,101601.72
2022-10-05T22:33:08.614Z,101612.94
2022-10-05T22:36:11.445Z,101610.41
2022-10-05T22:39:14.960Z,101608.69
2022-10-05T22:42:17.648Z,101612.13
2022-10-05T22:45:20.215Z,101606.19
2022-10-05T22:48:23.013Z,101600.16
2022-10-05T22:51:25.529Z,101595.78
2022-10-05T22:54:30.094Z,101595.81
2022-10-05T22:57:38.899Z,101587.13
2022-10-05T23:00:58.052Z,101588.91
2022-10-05T23:04:01.716Z,101579.37
2022-10-05T23:07:04.954Z,101579.28
2022-10-05T23:10:10.187Z,101576.69
2022-10-05T23:13:13.003Z,101573.16
2022-10-05T23:16:17.850Z,101579.22
2022-10-05T23:19:22.217Z,101579.13
2022-10-05T23:22:25.362Z,101569.56
2022-10-05T23:25:28.023Z,101569.56
2022-10-05T23:28:30.948Z,101567.88
2022-10-05T23:31:34.471Z,101572.03
2022-10-05T23:34:36.927Z,101568.59
2022-10-05T23:37:41.361Z,101569.56
2022-10-05T23:40:46.524Z,101568.72
2022-10-05T23:43:49.777Z,101565.37
2022-10-05T23:46:52.281Z,101561.06
2022-10-05T23:49:55.457Z,101563.59
2022-10-05T23:52:58.544Z,101556.63
2022-10-05T23:56:01.608Z,101552.28
2022-10-05T23:59:04.195Z,101558.16
